sensor_id;sensor_type;location;lat;lon;timestamp;pressure;altitude;pressure_sealevel;temperature;humidity
53754;BME280;39667;52.274;20.964;2023-02-03T00:01:24;100720.87;;;0.32;81.29
53754;BME280;39667;52.274;20.964;2023-02-03T00:03:53;100725.70;;;0.36;81.34
53754;BME280;39667;52.274;20.964;2023-02-03T00:06:27;100719.79;;;0.36;80.94
53754;BME280;39667;52.274;20.964;2023-02-03T00:09:05;100715.01;;;0.33;80.75
53754;BME280;39667;52.274;20.964;2023-02-03T00:11:42;100712.77;;;0.29;80.24
53754;BME280;39667;52.274;20.964;2023-02-03T00:14:14;100709.69;;;0.20;80.07
53754;BME280;39667;52.274;20.964;2023-02-03T00:16:45;100707.79;;;0.16;80.15
53754;BME280;39667;52.274;20.964;2023-02-03T00:19:13;100704.63;;;0.15;80.27
53754;BME280;39667;52.274;20.964;2023-02-03T00:21:44;100715.23;;;0.15;80.21
53754;BME280;39667;52.274;20.964;2023-02-03T00:25:45;100712.95;;;0.15;79.94
53754;BME280;39667;52.274;20.964;2023-02-03T00:28:13;100719.40;;;0.07;79.60
53754;BME280;39667;52.274;20.964;2023-02-03T00:31:02;100719.08;;;0.03;79.77
53754;BME280;39667;52.274;20.964;2023-02-03T00:33:58;100710.95;;;0.03;79.65
53754;BME280;39667;52.274;20.964;2023-02-03T00:36:31;100717.30;;;0.02;79.67
53754;BME280;39667;52.274;20.964;2023-02-03T00:39:02;100718.17;;;-0.02;79.41
53754;BME280;39667;52.274;20.964;2023-02-03T00:41:32;100719.12;;;-0.05;79.53
53754;BME280;39667;52.274;20.964;2023-02-03T00:44:01;100729.23;;;-0.08;79.33
53754;BME280;39667;52.274;20.964;2023-02-03T00:46:57;100733.05;;;-0.12;79.32
53754;BME280;39667;52.274;20.964;2023-02-03T00:58:46;100747.03;;;-0.13;79.30
53754;BME280;39667;52.274;20.964;2023-02-03T01:01:53;100749.10;;;-0.17;78.98
53754;BME280;39667;52.274;20.964;2023-02-03T01:04:46;100747.40;;;-0.21;79.13
53754;BME280;39667;52.274;20.964;2023-02-03T01:10:52;100745.73;;;-0.19;79.11
53754;BME280;39667;52.274;20.964;2023-02-03T01:14:25;100749.15;;;-0.12;79.21
53754;BME280;39667;52.274;20.964;2023-02-03T01:17:35;100751.13;;;-0.10;78.96
53754;BME280;39667;52.274;20.964;2023-02-03T01:20:54;100756.00;;;-0.05;78.74
53754;BME280;39667;52.274;20.964;2023-02-03T01:24:15;100758.93;;;-0.01;78.67
53754;BME280;39667;52.274;20.964;2023-02-03T01:37:04;100751.45;;;0.11;78.07
53754;BME280;39667;52.274;20.964;2023-02-03T01:46:53;100756.04;;;0.05;77.96
53754;BME280;39667;52.274;20.964;2023-02-03T01:58:02;100727.31;;;0.10;77.59
53754;BME280;39667;52.274;20.964;2023-02-03T02:01:52;100730.64;;;0.06;77.01
53754;BME280;39667;52.274;20.964;2023-02-03T02:46:33;100698.35;;;-0.31;74.62
53754;BME280;39667;52.274;20.964;2023-02-03T03:05:57;100699.96;;;-0.42;75.78
53754;BME280;39667;52.274;20.964;2023-02-03T03:08:57;100703.25;;;-0.47;75.73
53754;BME280;39667;52.274;20.964;2023-02-03T03:32:51;100707.52;;;-0.69;76.40
53754;BME280;39667;52.274;20.964;2023-02-03T03:35:19;100698.76;;;-0.68;76.33
53754;BME280;39667;52.274;20.964;2023-02-03T03:38:00;100697.92;;;-0.68;76.39
53754;BME280;39667;52.274;20.964;2023-02-03T03:40:40;100690.69;;;-0.71;76.22
53754;BME280;39667;52.274;20.964;2023-02-03T03:47:15;100687.06;;;-0.75;76.76
53754;BME280;39667;52.274;20.964;2023-02-03T03:54:29;100683.61;;;-0.80;76.46
53754;BME280;39667;52.274;20.964;2023-02-03T03:57:47;100688.58;;;-0.81;76.36
53754;BME280;39667;52.274;20.964;2023-02-03T04:02:02;100692.80;;;-0.91;76.47
53754;BME280;39667;52.274;20.964;2023-02-03T04:04:54;100688.20;;;-0.94;76.70
53754;BME280;39667;52.274;20.964;2023-02-03T04:08:27;100692.81;;;-0.91;76.58
53754;BME280;39667;52.274;20.964;2023-02-03T04:11:20;100695.23;;;-0.94;76.52
53754;BME280;39667;52.274;20.964;2023-02-03T04:14:10;100691.17;;;-0.93;76.71
53754;BME280;39667;52.274;20.964;2023-02-03T04:16:41;100691.83;;;-0.94;76.63
53754;BME280;39667;52.274;20.964;2023-02-03T04:19:46;100695.19;;;-0.95;76.76
53754;BME280;39667;52.274;20.964;2023-02-03T04:23:36;100694.75;;;-1.06;76.51
53754;BME280;39667;52.274;20.964;2023-02-03T04:33:10;100690.65;;;-1.13;76.79
53754;BME280;39667;52.274;20.964;2023-02-03T04:35:59;100692.58;;;-1.17;76.98
53754;BME280;39667;52.274;20.964;2023-02-03T04:41:38;100693.83;;;-1.24;76.98
53754;BME280;39667;52.274;20.964;2023-02-03T04:44:27;100691.33;;;-1.30;76.98
53754;BME280;39667;52.274;20.964;2023-02-03T04:46:57;100690.52;;;-1.37;77.01
53754;BME280;39667;52.274;20.964;2023-02-03T04:49:26;100691.31;;;-1.38;77.36
53754;BME280;39667;52.274;20.964;2023-02-03T04:52:21;100691.29;;;-1.39;77.41
53754;BME280;39667;52.274;20.964;2023-02-03T04:56:11;100685.52;;;-1.36;77.53
53754;BME280;39667;52.274;20.964;2023-02-03T04:58:59;100685.90;;;-1.35;77.62
53754;BME280;39667;52.274;20.964;2023-02-03T05:01:29;100682.02;;;-1.33;77.71
53754;BME280;39667;52.274;20.964;2023-02-03T05:04:32;100674.21;;;-1.34;77.63
53754;BME280;39667;52.274;20.964;2023-02-03T05:08:35;100669.41;;;-1.33;77.81
53754;BME280;39667;52.274;20.964;2023-02-03T05:12:47;100668.44;;;-1.28;77.84
53754;BME280;39667;52.274;20.964;2023-02-03T05:22:44;100656.90;;;-1.14;78.14
53754;BME280;39667;52.274;20.964;2023-02-03T05:31:09;100649.98;;;-1.10;78.09
53754;BME280;39667;52.274;20.964;2023-02-03T05:34:31;100648.05;;;-1.11;77.99
53754;BME280;39667;52.274;20.964;2023-02-03T05:46:43;100648.50;;;-1.17;78.62
53754;BME280;39667;52.274;20.964;2023-02-03T05:54:34;100638.83;;;-1.08;78.69
53754;BME280;39667;52.274;20.964;2023-02-03T05:58:30;100638.59;;;-1.06;78.88
53754;BME280;39667;52.274;20.964;2023-02-03T06:01:33;100634.83;;;-1.01;78.73
53754;BME280;39667;52.274;20.964;2023-02-03T06:14:31;100639.21;;;-1.04;78.70
53754;BME280;39667;52.274;20.964;2023-02-03T06:17:45;100631.42;;;-1.04;79.02
53754;BME280;39667;52.274;20.964;2023-02-03T06:22:07;100623.32;;;-0.90;79.16
53754;BME280;39667;52.274;20.964;2023-02-03T06:26:12;100612.90;;;-0.83;79.05
53754;BME280;39667;52.274;20.964;2023-02-03T06:36:43;100599.98;;;-0.77;78.90
53754;BME280;39667;52.274;20.964;2023-02-03T06:39:19;100594.67;;;-0.80;78.72
53754;BME280;39667;52.274;20.964;2023-02-03T06:41:46;100589.58;;;-0.83;78.74
53754;BME280;39667;52.274;20.964;2023-02-03T06:44:13;100588.70;;;-0.87;78.86
53754;BME280;39667;52.274;20.964;2023-02-03T06:46:43;100592.63;;;-0.88;78.88
53754;BME280;39667;52.274;20.964;2023-02-03T07:00:18;100563.98;;;-0.08;77.94
53754;BME280;39667;52.274;20.964;2023-02-03T07:02:54;100556.10;;;0.07;77.64
53754;BME280;39667;52.274;20.964;2023-02-03T07:05:22;100554.66;;;0.05;77.54
53754;BME280;39667;52.274;20.964;2023-02-03T07:07:50;100552.05;;;0.01;77.47
53754;BME280;39667;52.274;20.964;2023-02-03T07:10:17;100548.81;;;-0.03;77.42
53754;BME280;39667;52.274;20.964;2023-02-03T07:12:45;100544.42;;;-0.10;77.10
53754;BME280;39667;52.274;20.964;2023-02-03T07:15:12;100538.44;;;-0.17;77.29
53754;BME280;39667;52.274;20.964;2023-02-03T07:17:39;100534.08;;;-0.18;77.30
53754;BME280;39667;52.274;20.964;2023-02-03T07:20:14;100525.96;;;-0.17;77.13
53754;BME280;39667;52.274;20.964;2023-02-03T07:22:40;100520.63;;;-0.21;77.12
53754;BME280;39667;52.274;20.964;2023-02-03T07:25:09;100514.71;;;-0.22;77.13
53754;BME280;39667;52.274;20.964;2023-02-03T07:27:36;100514.83;;;-0.24;76.89
53754;BME280;39667;52.274;20.964;2023-02-03T07:30:05;100512.84;;;-0.26;77.21
53754;BME280;39667;52.274;20.964;2023-02-03T07:32:57;100514.95;;;-0.20;77.23
53754;BME280;39667;52.274;20.964;2023-02-03T07:35:55;100509.85;;;-0.18;77.20
53754;BME280;39667;52.274;20.964;2023-02-03T07:38:25;100509.36;;;-0.12;77.16
53754;BME280;39667;52.274;20.964;2023-02-03T07:40:53;100506.23;;;-0.07;77.10
53754;BME280;39667;52.274;20.964;2023-02-03T07:44:18;100502.11;;;-0.07;76.58
53754;BME280;39667;52.274;20.964;2023-02-03T07:46:46;100499.31;;;-0.07;76.69
53754;BME280;39667;52.274;20.964;2023-02-03T07:49:16;100492.27;;;-0.01;76.57
53754;BME280;39667;52.274;20.964;2023-02-03T07:51:43;100485.66;;;0.04;76.64
53754;BME280;39667;52.274;20.964;2023-02-03T07:54:32;100475.58;;;0.12;76.64
53754;BME280;39667;52.274;20.964;2023-02-03T07:57:03;100471.48;;;0.19;76.27
53754;BME280;39667;52.274;20.964;2023-02-03T07:59:31;100464.90;;;0.19;76.12
53754;BME280;39667;52.274;20.964;2023-02-03T08:05:41;100451.06;;;0.36;75.81
53754;BME280;39667;52.274;20.964;2023-02-03T08:08:38;100451.22;;;0.45;75.48
53754;BME280;39667;52.274;20.964;2023-02-03T08:11:26;100451.95;;;0.52;74.85
53754;BME280;39667;52.274;20.964;2023-02-03T08:13:57;100451.10;;;0.52;74.88
53754;BME280;39667;52.274;20.964;2023-02-03T08:16:44;100443.52;;;0.54;74.64
53754;BME280;39667;52.274;20.964;2023-02-03T08:19:17;100443.07;;;0.61;74.30
53754;BME280;39667;52.274;20.964;2023-02-03T08:35:07;100425.64;;;1.39;72.20
53754;BME280;39667;52.274;20.964;2023-02-03T08:37:38;100416.55;;;1.43;71.83
53754;BME280;39667;52.274;20.964;2023-02-03T08:40:07;100413.63;;;1.44;72.16
53754;BME280;39667;52.274;20.964;2023-02-03T08:42:50;100404.95;;;1.44;72.02
53754;BME280;39667;52.274;20.964;2023-02-03T08:45:24;100395.16;;;1.41;71.70
53754;BME280;39667;52.274;20.964;2023-02-03T08:48:14;100393.91;;;1.40;71.63
53754;BME280;39667;52.274;20.964;2023-02-03T08:50:43;100386.91;;;1.38;71.60
53754;BME280;39667;52.274;20.964;2023-02-03T08:53:15;100382.84;;;1.41;71.71
53754;BME280;39667;52.274;20.964;2023-02-03T08:56:04;100381.44;;;1.47;71.49
53754;BME280;39667;52.274;20.964;2023-02-03T08:58:38;100376.34;;;1.51;71.22
53754;BME280;39667;52.274;20.964;2023-02-03T09:01:45;100376.86;;;1.51;71.07
53754;BME280;39667;52.274;20.964;2023-02-03T09:04:34;100366.04;;;1.49;70.73
53754;BME280;39667;52.274;20.964;2023-02-03T09:07:23;100359.80;;;1.43;70.43
53754;BME280;39667;52.274;20.964;2023-02-03T09:09:51;100355.64;;;1.43;70.41
53754;BME280;39667;52.274;20.964;2023-02-03T09:12:22;100346.55;;;1.41;70.23
53754;BME280;39667;52.274;20.964;2023-02-03T09:14:51;100343.16;;;1.43;70.48
53754;BME280;39667;52.274;20.964;2023-02-03T09:17:21;100341.42;;;1.50;69.91
53754;BME280;39667;52.274;20.964;2023-02-03T09:19:49;100339.16;;;1.50;69.11
53754;BME280;39667;52.274;20.964;2023-02-03T09:22:18;100339.20;;;1.45;69.13
53754;BME280;39667;52.274;20.964;2023-02-03T09:24:55;100333.77;;;1.43;68.85
53754;BME280;39667;52.274;20.964;2023-02-03T09:27:26;100324.44;;;1.44;68.94
53754;BME280;39667;52.274;20.964;2023-02-03T09:30:05;100317.99;;;1.43;69.16
53754;BME280;39667;52.274;20.964;2023-02-03T09:32:39;100310.86;;;1.50;68.87
53754;BME280;39667;52.274;20.964;2023-02-03T09:35:20;100300.96;;;1.50;68.60
53754;BME280;39667;52.274;20.964;2023-02-03T09:37:48;100295.98;;;1.52;68.44
53754;BME280;39667;52.274;20.964;2023-02-03T09:40:23;100283.67;;;1.52;68.26
53754;BME280;39667;52.274;20.964;2023-02-03T09:45:49;100272.70;;;1.51;66.84
53754;BME280;39667;52.274;20.964;2023-02-03T09:48:23;100267.52;;;1.52;67.76
53754;BME280;39667;52.274;20.964;2023-02-03T09:50:54;100261.14;;;1.67;67.79
53754;BME280;39667;52.274;20.964;2023-02-03T09:53:38;100256.38;;;1.78;67.54
